Time;durP1;ratioP1;P1;durP2;ratioP2;P2;SDS_P1;SDS_P2;PMS_P1;PMS_P2;Temp;Humidity;BMP_temperature;BMP_pressure;BME280_temperature;BME280_humidity;BME280_pressure;Samples;Min_cycle;Max_cycle;Signal;HPM_P1;HPM_P2
2022/04/20 00:01:57;;;;;;;66.35;37.03;;;;;;;0.22;92.36;97859.04;1744414;81;20918;-58
2022/04/20 00:04:23;;;;;;;69.62;37.95;;;;;;;0.22;90.95;97854.53;1781763;80;20917;-58
2022/04/20 00:06:49;;;;;;;71.80;37.73;;;;;;;0.20;91.34;97858.45;1789284;80;22001;-57
2022/04/20 00:09:15;;;;;;;63.45;35.48;;;;;;;0.18;92.80;97859.19;1789051;80;20941;-57
2022/04/20 00:11:41;;;;;;;61.85;35.60;;;;;;;0.15;89.71;97859.61;1765524;80;20938;-58
2022/04/20 00:14:06;;;;;;;67.82;37.20;;;;;;;0.07;90.06;97864.68;1741562;81;20839;-57
2022/04/20 00:16:32;;;;;;;73.47;40.48;;;;;;;0.03;91.13;97866.16;1764851;80;20890;-57
2022/04/20 00:18:58;;;;;;;65.55;35.83;;;;;;;0.03;92.16;97860.02;1787989;80;22268;-57
2022/04/20 00:21:24;;;;;;;78.67;38.65;;;;;;;0.03;90.59;97862.16;1741200;81;21115;-57
2022/04/20 00:23:50;;;;;;;67.53;36.95;;;;;;;0.01;91.77;97864.75;1770367;80;20854;-57
2022/04/20 00:26:16;;;;;;;61.65;34.27;;;;;;;0.04;90.53;97858.46;1757569;80;20826;-57
2022/04/20 00:28:42;;;;;;;60.88;34.30;;;;;;;0.03;89.08;97858.16;1787848;80;20874;-57
2022/04/20 00:31:09;;;;;;;69.97;36.28;;;;;;;0.01;88.32;97860.23;1744034;80;21544;-57
2022/04/20 00:33:35;;;;;;;89.87;40.05;;;;;;;0.01;89.24;97855.42;1741169;81;21022;-57
2022/04/20 00:36:02;;;;;;;124.20;53.38;;;;;;;0.03;88.06;97859.50;1740623;81;20979;-57
2022/04/20 00:38:28;;;;;;;76.97;41.42;;;;;;;0.01;88.12;97850.91;1781924;80;21049;-57
2022/04/20 00:40:55;;;;;;;73.12;39.80;;;;;;;-0.02;90.65;97850.81;1781365;80;20978;-57
2022/04/20 00:43:21;;;;;;;83.00;43.15;;;;;;;-0.04;92.01;97850.73;1741268;81;21479;-57
2022/04/20 00:45:47;;;;;;;77.65;42.60;;;;;;;-0.05;92.49;97847.77;1777740;80;20921;-57
2022/04/20 00:48:13;;;;;;;68.40;36.53;;;;;;;-0.08;93.02;97849.03;1788897;80;21435;-57
2022/04/20 00:50:45;;;;;;;71.97;39.05;;;;;;;-0.08;91.95;97847.70;1729403;81;20868;-57
2022/04/20 00:53:11;;;;;;;64.42;36.75;;;;;;;-0.11;90.87;97843.30;1761072;80;21009;-57
2022/04/20 00:55:37;;;;;;;67.37;37.30;;;;;;;-0.14;91.73;97852.55;1755716;80;20978;-57
2022/04/20 00:58:03;;;;;;;67.62;37.53;;;;;;;-0.18;92.73;97856.65;1745779;81;20899;-57
2022/04/20 01:00:29;;;;;;;71.57;39.65;;;;;;;-0.19;91.45;97855.55;1741332;81;21017;-57
2022/04/20 01:02:55;;;;;;;66.12;36.20;;;;;;;-0.23;93.36;97855.69;1788972;80;21447;-57
2022/04/20 01:05:21;;;;;;;59.75;32.20;;;;;;;-0.23;92.75;97860.49;1760663;80;20970;-57
2022/04/20 01:07:47;;;;;;;47.05;27.32;;;;;;;-0.22;91.18;97863.45;1742544;81;21380;-57
2022/04/20 01:10:13;;;;;;;65.37;36.15;;;;;;;-0.20;90.96;97860.05;1743798;81;20847;-57
2022/04/20 01:12:43;;;;;;;57.27;34.88;;;;;;;-0.24;89.30;97860.72;1741336;81;20866;-57
2022/04/20 01:15:10;;;;;;;62.45;35.45;;;;;;;-0.30;92.45;97866.37;1744003;81;21439;-58
2022/04/20 01:17:36;;;;;;;60.52;31.17;;;;;;;-0.27;93.41;97865.12;1750978;80;21018;-57
2022/04/20 01:20:02;;;;;;;58.92;32.60;;;;;;;-0.24;92.11;97868.19;1766827;80;21377;-57
2022/04/20 01:22:28;;;;;;;65.65;33.98;;;;;;;-0.23;92.30;97866.34;1741329;81;21478;-57
2022/04/20 01:24:54;;;;;;;62.80;32.90;;;;;;;-0.27;92.13;97861.94;1743460;81;20859;-57
2022/04/20 01:27:20;;;;;;;64.47;34.90;;;;;;;-0.27;93.03;97863.27;1747711;80;20870;-57
2022/04/20 01:29:46;;;;;;;69.77;36.65;;;;;;;-0.22;92.81;97866.12;1749562;80;20974;-57
2022/04/20 01:32:12;;;;;;;60.17;34.15;;;;;;;-0.20;92.57;97862.72;1742281;80;21561;-57
2022/04/20 01:34:38;;;;;;;66.37;34.85;;;;;;;-0.22;92.25;97867.45;1786715;80;21002;-57
2022/04/20 01:37:04;;;;;;;66.37;35.45;;;;;;;-0.21;91.34;97861.61;1780663;80;20884;-57
2022/04/20 01:39:30;;;;;;;68.25;37.28;;;;;;;-0.24;92.63;97858.86;1743231;81;21455;-57
2022/04/20 01:41:56;;;;;;;52.40;31.42;;;;;;;-0.25;93.29;97854.57;1741160;81;20950;-57
2022/04/20 01:44:22;;;;;;;58.83;33.95;;;;;;;-0.19;92.36;97856.88;1749386;80;22086;-57
2022/04/20 01:46:48;;;;;;;56.75;30.80;;;;;;;-0.19;92.94;97861.68;1751840;81;20994;-57
2022/04/20 01:49:14;;;;;;;67.55;34.78;;;;;;;-0.15;92.56;97856.24;1779295;80;21643;-56
2022/04/20 01:51:54;;;;;;;61.23;32.00;;;;;;;-0.14;92.68;97860.53;1788809;80;20941;-57
2022/04/20 01:54:19;;;;;;;60.43;32.95;;;;;;;-0.13;92.78;97856.02;1749147;80;21006;-57
2022/04/20 01:56:49;;;;;;;54.58;30.10;;;;;;;-0.16;93.53;97855.95;1765636;80;21566;-57
2022/04/20 01:59:15;;;;;;;52.93;30.60;;;;;;;-0.14;92.90;97857.06;1751812;80;21545;-57
2022/04/20 02:04:26;;;;;;;57.83;28.77;;;;;;;-0.11;92.99;97848.11;1741259;81;21014;-57
2022/04/20 02:06:52;;;;;;;54.77;29.12;;;;;;;-0.12;92.93;97843.81;1767731;80;21040;-57
2022/04/20 02:09:18;;;;;;;65.92;33.25;;;;;;;-0.09;93.45;97846.55;1788942;80;21505;-57
2022/04/20 02:11:43;;;;;;;52.20;29.92;;;;;;;-0.10;93.10;97839.08;1788752;80;20854;-57
2022/04/20 02:14:09;;;;;;;59.40;34.40;;;;;;;-0.12;92.69;97834.49;1753958;80;21024;-57
2022/04/20 02:16:36;;;;;;;53.55;30.57;;;;;;;-0.14;92.59;97837.89;1762507;80;20926;-57
2022/04/20 02:19:03;;;;;;;56.05;28.77;;;;;;;-0.16;92.48;97834.64;1789251;80;21509;-57
2022/04/20 02:21:30;;;;;;;60.98;32.45;;;;;;;-0.15;92.17;97840.78;1789251;80;21139;-57
2022/04/20 02:23:56;;;;;;;56.25;29.55;;;;;;;-0.23;93.19;97837.86;1789098;80;21056;-57
2022/04/20 02:26:22;;;;;;;53.52;30.30;;;;;;;-0.25;93.11;97833.27;1789129;80;20949;-57
2022/04/20 02:28:48;;;;;;;61.20;30.52;;;;;;;-0.27;93.38;97832.64;1787297;80;20822;-57
2022/04/20 02:31:14;;;;;;;53.33;30.92;;;;;;;-0.25;93.19;97831.13;1742905;80;20934;-57
2022/04/20 02:33:41;;;;;;;50.03;28.00;;;;;;;-0.27;93.23;97827.83;1741517;81;21393;-57
2022/04/20 02:36:07;;;;;;;47.25;27.80;;;;;;;-0.26;92.78;97833.45;1742663;81;20994;-57
2022/04/20 02:38:34;;;;;;;53.35;29.57;;;;;;;-0.33;93.02;97827.68;1784654;80;21000;-57
2022/04/20 02:41:00;;;;;;;56.37;28.70;;;;;;;-0.34;92.87;97829.23;1788942;80;20997;-57
2022/04/20 02:43:27;;;;;;;54.20;31.40;;;;;;;-0.34;93.10;97827.38;1789022;80;20882;-57
2022/04/20 02:45:52;;;;;;;52.85;29.75;;;;;;;-0.35;93.02;97825.72;1732855;81;21349;-57
2022/04/20 02:48:18;;;;;;;51.98;28.95;;;;;;;-0.38;93.44;97820.84;1741336;81;20886;-58
2022/04/20 02:50:45;;;;;;;56.08;28.17;;;;;;;-0.37;92.77;97815.81;1741796;81;21490;-57
2022/04/20 02:53:13;;;;;;;55.43;29.92;;;;;;;-0.36;92.60;97814.78;1747262;81;20994;-57
2022/04/20 02:55:42;;;;;;;52.03;30.02;;;;;;;-0.33;92.71;97820.20;1743381;81;21094;-57
2022/04/20 02:58:08;;;;;;;57.58;30.23;;;;;;;-0.31;93.09;97815.48;1745718;81;21061;-57
2022/04/20 03:00:34;;;;;;;52.23;29.70;;;;;;;-0.30;93.33;97816.59;1745178;81;20994;-57
2022/04/20 03:03:00;;;;;;;57.58;32.30;;;;;;;-0.26;92.29;97821.47;1742864;81;21012;-57
2022/04/20 03:05:26;;;;;;;55.63;29.67;;;;;;;-0.28;92.25;97821.69;1773502;80;20866;-57
2022/04/20 03:07:51;;;;;;;51.48;30.10;;;;;;;-0.32;92.41;97827.16;1743263;80;21684;-58
2022/04/20 03:10:17;;;;;;;55.73;27.82;;;;;;;-0.33;92.19;97829.02;1741354;81;21139;-57
2022/04/20 03:12:44;;;;;;;43.50;25.27;;;;;;;-0.35;92.49;97826.23;1741269;81;21822;-57
2022/04/20 03:15:10;;;;;;;56.28;26.90;;;;;;;-0.38;90.79;97829.34;1741174;81;21041;-58
2022/04/20 03:17:36;;;;;;;41.25;23.77;;;;;;;-0.43;90.92;97833.15;1741207;81;20863;-57
2022/04/20 03:20:02;;;;;;;50.35;26.23;;;;;;;-0.42;90.92;97838.80;1741283;81;21037;-57
2022/04/20 03:22:28;;;;;;;47.80;24.00;;;;;;;-0.42;93.20;97846.79;1745767;80;21567;-58
2022/04/20 03:24:54;;;;;;;50.92;27.73;;;;;;;-0.34;92.17;97844.69;1788703;80;21383;-57
2022/04/20 03:27:21;;;;;;;44.42;25.68;;;;;;;-0.30;91.98;97839.22;1789086;80;20870;-57
2022/04/20 03:29:47;;;;;;;42.50;25.60;;;;;;;-0.26;91.87;97844.11;1748545;80;21024;-57
2022/04/20 03:32:14;;;;;;;55.45;36.17;;;;;;;-0.26;92.99;97848.92;1730296;81;22053;-58
2022/04/20 03:34:40;;;;;;;54.35;32.88;;;;;;;-0.27;93.26;97856.61;1718425;82;21533;-57
2022/04/20 03:37:07;;;;;;;45.78;26.97;;;;;;;-0.22;92.84;97848.80;1756547;80;21539;-57
2022/04/20 03:39:33;;;;;;;64.90;30.12;;;;;;;-0.19;90.98;97836.90;1748286;80;21017;-57
2022/04/20 03:41:59;;;;;;;50.95;28.60;;;;;;;-0.17;91.58;97845.48;1751562;81;20989;-57
2022/04/20 03:44:26;;;;;;;47.03;26.82;;;;;;;-0.17;92.77;97841.48;1746756;81;21478;-57
2022/04/20 03:46:53;;;;;;;53.42;28.15;;;;;;;-0.19;93.07;97836.90;1743818;81;21611;-57
2022/04/20 03:49:19;;;;;;;58.15;30.12;;;;;;;-0.13;92.31;97834.72;1741196;81;21438;-57
2022/04/20 03:51:46;;;;;;;52.17;29.32;;;;;;;-0.07;92.32;97839.19;1744358;81;20942;-57
2022/04/20 03:54:13;;;;;;;49.05;29.82;;;;;;;-0.08;92.75;97829.56;1773137;80;21003;-57
2022/04/20 03:59:24;;;;;;;62.00;26.73;;;;;;;-0.07;92.52;97829.86;1744926;81;21123;-57
2022/04/20 04:01:51;;;;;;;45.78;26.37;;;;;;;-0.06;91.90;97832.30;1741251;81;21010;-57
2022/04/20 04:04:20;;;;;;;45.67;23.62;;;;;;;-0.05;92.02;97834.45;1740950;81;21061;-57
2022/04/20 04:06:47;;;;;;;51.02;25.30;;;;;;;-0.06;90.65;97830.97;1741416;81;21057;-57
2022/04/20 04:09:13;;;;;;;45.03;27.48;;;;;;;-0.13;90.12;97834.20;1777452;80;21005;-57
2022/04/20 04:11:39;;;;;;;48.38;27.45;;;;;;;-0.13;90.46;97832.05;1789096;80;22229;-57
2022/04/20 04:14:05;;;;;;;45.15;27.50;;;;;;;-0.09;91.47;97838.56;1788911;80;21041;-57
2022/04/20 04:16:36;;;;;;;47.93;25.82;;;;;;;-0.09;92.68;97843.89;1769083;80;21001;-57
2022/04/20 04:18:59;;;;;;;39.98;24.87;;;;;;;0.01;91.94;97840.26;1740350;81;21010;-57
2022/04/20 04:21:25;;;;;;;45.23;26.07;;;;;;;0.03;92.14;97842.70;1759012;80;20874;-57
2022/04/20 04:23:51;;;;;;;42.65;24.75;;;;;;;0.09;92.51;97847.17;1789145;80;21525;-57
2022/04/20 04:26:17;;;;;;;43.50;25.05;;;;;;;0.16;92.33;97843.39;1789010;80;22067;-57
2022/04/20 04:28:43;;;;;;;40.20;22.40;;;;;;;0.19;91.68;97841.64;1787733;80;20981;-57
2022/04/20 04:31:09;;;;;;;53.40;28.23;;;;;;;0.23;90.49;97850.83;1744008;80;20906;-57
2022/04/20 04:33:35;;;;;;;48.00;26.87;;;;;;;0.20;92.06;97849.94;1744151;81;21362;-57
2022/04/20 04:36:02;;;;;;;50.65;26.37;;;;;;;0.28;92.22;97859.00;1756082;80;21360;-57
2022/04/20 04:38:28;;;;;;;47.65;25.02;;;;;;;0.38;91.62;97855.02;1745918;80;20998;-57
2022/04/20 04:40:54;;;;;;;44.50;24.43;;;;;;;0.41;91.00;97851.39;1748855;81;22063;-57
2022/04/20 04:43:20;;;;;;;44.80;23.98;;;;;;;0.43;91.76;97856.00;1741236;81;20866;-57
2022/04/20 04:48:36;;;;;;;48.42;27.90;;;;;;;0.46;90.51;97858.22;1743686;81;21435;-57
2022/04/20 04:51:03;;;;;;;44.63;27.58;;;;;;;0.52;91.70;97857.36;1745876;81;21043;-57
2022/04/20 04:53:30;;;;;;;44.90;26.25;;;;;;;0.63;91.86;97859.00;1762991;80;21510;-57
2022/04/20 04:55:56;;;;;;;52.60;29.48;;;;;;;0.70;91.81;97865.91;1749157;80;21014;-57
2022/04/20 04:58:21;;;;;;;52.10;29.80;;;;;;;0.76;90.95;97859.66;1741277;81;21676;-57
2022/04/20 05:00:48;;;;;;;45.65;29.48;;;;;;;0.79;90.94;97865.10;1717938;80;21526;-57
2022/04/20 05:03:17;;;;;;;47.00;25.88;;;;;;;0.80;89.99;97862.20;1734393;81;20967;-58
2022/04/20 05:05:43;;;;;;;;;;;;;;;0.81;90.30;97867.02;1756151;81;21004;-57
2022/04/20 05:08:09;;;;;;;45.45;24.07;;;;;;;0.86;90.25;97863.70;1749709;80;20914;-57
2022/04/20 05:10:36;;;;;;;43.83;25.72;;;;;;;0.95;89.89;97863.71;1757108;81;21080;-57
2022/04/20 05:13:06;;;;;;;46.98;26.87;;;;;;;1.01;89.39;97863.61;1743258;82;21025;-58
2022/04/20 05:15:33;;;;;;;48.33;26.35;;;;;;;1.07;89.92;97857.92;1744267;82;21402;-57
2022/04/20 05:18:00;;;;;;;47.53;24.63;;;;;;;1.14;89.62;97857.33;1744360;82;20992;-57
2022/04/20 05:20:26;;;;;;;45.83;25.68;;;;;;;1.26;89.02;97855.53;1736634;82;21434;-58
2022/04/20 05:22:52;;;;;;;44.98;27.30;;;;;;;1.37;89.17;97861.99;1754699;81;20977;-57
2022/04/20 05:25:18;;;;;;;54.65;30.82;;;;;;;1.46;89.62;97851.30;1734350;81;22221;-57
2022/04/20 05:27:44;;;;;;;53.13;27.90;;;;;;;1.53;89.87;97845.32;1742452;82;20929;-57
2022/04/20 05:30:13;;;;;;;48.92;28.12;;;;;;;1.68;88.70;97851.60;1733199;81;21448;-57
2022/04/20 05:32:39;;;;;;;54.93;29.12;;;;;;;1.77;88.66;97854.77;1724350;82;23668;-57
2022/04/20 05:35:06;;;;;;;47.58;28.02;;;;;;;1.74;88.82;97856.57;1735544;81;20984;-57
2022/04/20 05:43:01;;;;;;;54.00;29.80;;;;;;;1.88;89.01;97850.82;1744237;82;21029;-57
2022/04/20 05:45:27;;;;;;;50.50;28.62;;;;;;;2.08;88.70;97856.38;1744188;82;20846;-57
2022/04/20 05:47:53;;;;;;;61.13;32.30;;;;;;;2.09;88.69;97847.31;1744454;82;21475;-57
2022/04/20 05:50:19;;;;;;;55.23;31.00;;;;;;;2.21;88.03;97846.80;1737952;82;21461;-57
2022/04/20 05:52:44;;;;;;;49.03;27.40;;;;;;;2.29;88.14;97838.97;1745355;81;20934;-57
2022/04/20 05:55:10;;;;;;;57.20;31.55;;;;;;;2.43;88.43;97839.05;1738561;80;20952;-56
2022/04/20 05:57:37;;;;;;;74.58;38.92;;;;;;;2.52;88.67;97831.78;1737914;82;20932;-56
2022/04/20 06:00:07;;;;;;;97.75;48.98;;;;;;;2.64;88.37;97837.64;1734618;82;21484;-56
2022/04/20 06:02:33;;;;;;;102.47;50.88;;;;;;;2.82;88.31;97838.89;1740929;82;21546;-56
2022/04/20 06:05:01;;;;;;;94.42;51.83;;;;;;;3.01;87.87;97832.86;1733724;81;20992;-56
2022/04/20 06:07:27;;;;;;;68.52;42.38;;;;;;;3.20;88.01;97824.95;1721043;81;20969;-56
2022/04/20 06:09:53;;;;;;;61.45;35.73;;;;;;;3.36;87.30;97826.89;1756161;80;20980;-56
2022/04/20 06:12:22;;;;;;;48.25;30.88;;;;;;;3.58;86.65;97822.20;1746231;81;20893;-56
2022/04/20 06:14:47;;;;;;;51.70;32.83;;;;;;;3.91;86.75;97820.13;1741612;80;21471;-56
2022/04/20 06:17:14;;;;;;;52.65;32.23;;;;;;;4.26;86.53;97826.61;1728414;82;20925;-56
2022/04/20 06:19:39;;;;;;;49.58;29.60;;;;;;;4.40;84.85;97823.08;1736183;81;20989;-56
2022/04/20 06:22:05;;;;;;;43.13;26.68;;;;;;;4.74;83.93;97825.20;1746736;81;20833;-56
2022/04/20 06:24:31;;;;;;;44.48;27.77;;;;;;;4.74;83.93;97825.20;1755604;80;20862;-56
2022/04/20 06:26:57;;;;;;;41.80;25.57;;;;;;;4.85;83.76;97816.23;1742251;81;22109;-56
2022/04/20 06:29:23;;;;;;;44.83;28.83;;;;;;;5.03;84.39;97819.95;1737421;81;21008;-56
2022/04/20 06:31:51;;;;;;;49.75;30.55;;;;;;;5.09;84.21;97814.13;1732379;81;21690;-58
2022/04/20 06:34:19;;;;;;;43.13;25.02;;;;;;;5.21;83.03;97804.09;1736853;81;21367;-57
2022/04/20 06:36:45;;;;;;;133.67;85.47;;;;;;;5.37;82.51;97801.03;1737334;81;21322;-57
2022/04/20 06:39:11;;;;;;;67.08;41.13;;;;;;;5.49;82.56;97792.32;1740346;80;21593;-56
2022/04/20 06:41:37;;;;;;;42.73;28.73;;;;;;;5.75;83.00;97795.27;1741929;81;20849;-56
2022/04/20 06:44:03;;;;;;;36.63;24.87;;;;;;;5.96;81.89;97798.98;1740406;81;21426;-57
2022/04/20 06:46:29;;;;;;;49.98;30.35;;;;;;;6.20;82.37;97792.20;1730361;82;21509;-56
2022/04/20 06:48:55;;;;;;;40.70;25.85;;;;;;;6.34;82.18;97783.98;1733866;81;20874;-55
2022/04/20 06:51:21;;;;;;;43.73;26.20;;;;;;;6.63;81.37;97784.98;1737383;81;21564;-57
2022/04/20 06:59:16;;;;;;;42.08;24.87;;;;;;;7.85;77.41;97766.03;1740863;80;21032;-57
2022/04/20 07:01:42;;;;;;;28.62;19.90;;;;;;;8.16;76.95;97760.13;1741934;81;21361;-56
2022/04/20 07:04:08;;;;;;;29.27;20.35;;;;;;;8.10;71.82;97767.14;1741797;81;22552;-57
2022/04/20 07:06:34;;;;;;;31.52;20.10;;;;;;;8.24;75.32;97763.38;1741104;81;21524;-57
2022/04/20 07:09:00;;;;;;;29.42;17.42;;;;;;;7.72;70.23;97771.97;1745246;81;20901;-57
2022/04/20 07:11:28;;;;;;;30.05;17.85;;;;;;;7.41;67.01;97770.27;1731768;82;20842;-56
2022/04/20 07:13:57;;;;;;;27.75;14.13;;;;;;;7.42;71.41;97769.18;1735228;81;21047;-57
2022/04/20 07:16:23;;;;;;;21.00;12.70;;;;;;;6.93;62.86;97769.01;1742634;81;21131;-57
2022/04/20 07:18:49;;;;;;;15.90;11.12;;;;;;;6.65;63.21;97774.22;1742499;80;21415;-58
2022/04/20 07:21:15;;;;;;;15.13;10.95;;;;;;;6.51;63.66;97767.69;1738602;81;20880;-57
2022/04/20 07:23:41;;;;;;;16.93;11.68;;;;;;;6.27;62.78;97778.01;1737418;81;21752;-56
2022/04/20 07:26:07;;;;;;;18.45;10.85;;;;;;;6.36;64.60;97779.15;1741561;81;20881;-57
2022/04/20 07:28:34;;;;;;;16.25;10.95;;;;;;;6.39;66.65;97775.94;1741583;81;20900;-58
2022/04/20 07:31:01;;;;;;;21.30;13.32;;;;;;;6.39;65.56;97776.47;1738047;81;21198;-57
2022/04/20 07:33:27;;;;;;;19.80;12.20;;;;;;;6.43;67.48;97777.59;1732600;81;21072;-58
2022/04/20 07:35:53;;;;;;;17.42;11.48;;;;;;;6.44;68.44;97769.79;1747131;81;21028;-57
2022/04/20 07:38:18;;;;;;;22.05;14.40;;;;;;;6.39;65.63;97771.90;1728920;80;20964;-57
2022/04/20 07:40:44;;;;;;;22.35;13.53;;;;;;;6.38;67.18;97774.31;1748722;81;21317;-56
2022/04/20 07:43:10;;;;;;;24.65;13.78;;;;;;;6.41;68.14;97776.51;1747287;80;21571;-58
2022/04/20 07:45:36;;;;;;;19.57;11.68;;;;;;;6.39;67.88;97773.78;1733318;81;20943;-57
2022/04/20 07:48:02;;;;;;;17.23;11.40;;;;;;;6.35;68.27;97770.80;1731864;81;20936;-58
2022/04/20 07:50:28;;;;;;;21.02;11.48;;;;;;;6.31;66.64;97772.91;1731664;82;21397;-58
2022/04/20 07:52:58;;;;;;;21.62;14.98;;;;;;;6.29;67.62;97769.14;1736349;80;39068;-57
2022/04/20 07:55:29;;;;;;;22.05;13.25;;;;;;;6.25;67.58;97761.31;1726845;81;21036;-57
2022/04/20 07:57:58;;;;;;;20.23;13.20;;;;;;;6.26;68.22;97766.97;1734835;81;21060;-58
2022/04/20 08:00:24;;;;;;;26.48;17.48;;;;;;;6.26;67.64;97769.66;1734795;81;21012;-56
2022/04/20 08:02:50;;;;;;;27.65;16.82;;;;;;;6.25;67.57;97771.27;1734395;81;21760;-58
2022/04/20 08:05:19;;;;;;;24.72;14.98;;;;;;;6.19;67.78;97771.76;1736154;81;21597;-57
2022/04/20 08:07:45;;;;;;;25.00;15.90;;;;;;;6.20;68.52;97765.30;1738868;81;21059;-57
2022/04/20 08:10:12;;;;;;;21.85;13.70;;;;;;;6.26;68.72;97766.16;1730726;81;21460;-58
2022/04/20 08:12:41;;;;;;;28.27;15.40;;;;;;;6.29;68.63;97767.80;1730905;81;21423;-57
2022/04/20 08:15:07;;;;;;;;;;;;;;;6.35;68.75;97773.50;1733785;81;21026;-56
2022/04/20 08:17:33;;;;;;;27.37;15.63;;;;;;;6.39;68.96;97772.44;1732490;81;20695;-58
2022/04/20 08:19:59;;;;;;;19.73;13.30;;;;;;;6.39;68.99;97771.09;1729942;81;21110;-57
2022/04/20 08:22:26;;;;;;;20.75;13.68;;;;;;;6.36;68.52;97767.58;1732708;81;20856;-58
2022/04/20 08:24:53;;;;;;;24.72;15.60;;;;;;;6.34;68.63;97769.19;1741020;81;21009;-58
2022/04/20 08:27:23;;;;;;;37.45;20.30;;;;;;;6.34;68.62;97773.22;1742842;82;21496;-57
2022/04/20 08:29:47;;;;;;;27.50;16.50;;;;;;;6.37;68.86;97765.16;1730059;81;22444;-58
2022/04/20 08:32:16;;;;;;;24.32;15.48;;;;;;;6.37;68.86;97765.16;1731872;81;21969;-58
2022/04/20 08:34:45;;;;;;;24.07;16.95;;;;;;;6.32;68.50;97768.61;1738146;81;21489;-57
2022/04/20 08:37:11;;;;;;;22.25;13.95;;;;;;;6.32;68.76;97769.15;1732382;82;21812;-57
2022/04/20 08:39:39;;;;;;;28.10;17.10;;;;;;;6.34;68.38;97767.03;1739477;82;20881;-57
2022/04/20 08:42:07;;;;;;;27.70;18.17;;;;;;;6.27;68.54;97762.40;1734711;82;21979;-57
2022/04/20 08:44:38;;;;;;;30.83;18.10;;;;;;;6.23;69.09;97769.63;1741999;79;21019;-58
2022/04/20 08:47:07;;;;;;;29.05;18.17;;;;;;;6.27;69.46;97764.55;1741954;81;21604;-58
2022/04/20 08:49:32;;;;;;;29.95;15.55;;;;;;;6.30;69.33;97759.18;1741171;80;21067;-57
2022/04/20 08:54:43;;;;;;;36.13;20.82;;;;;;;6.28;69.07;97762.67;1741007;80;21041;-58
2022/04/20 08:57:22;;;;;;;37.30;22.62;;;;;;;6.24;69.09;97758.36;1734764;81;21092;-57
2022/04/20 08:59:48;;;;;;;33.18;23.10;;;;;;;6.18;69.02;97755.34;1732627;81;21044;-57
2022/04/20 09:02:18;;;;;;;;;;;;;;;6.10;69.09;97757.97;1744679;82;21073;-58
2022/04/20 09:04:44;;;;;;;32.28;20.80;;;;;;;6.02;69.09;97752.25;1745828;79;20198;-57
2022/04/20 09:07:11;;;;;;;32.65;18.80;;;;;;;5.99;69.40;97748.73;1741315;81;21148;-56
2022/04/20 09:09:37;;;;;;;32.55;20.65;;;;;;;6.01;69.43;97748.75;1728363;81;21056;-58
2022/04/20 09:12:11;;;;;;;35.43;22.25;;;;;;;6.01;69.55;97751.97;1741956;82;20944;-57
2022/04/20 09:14:39;;;;;;;29.12;19.75;;;;;;;5.99;69.49;97752.77;1736261;80;20989;-58
2022/04/20 09:17:05;;;;;;;29.40;19.98;;;;;;;6.05;69.83;97752.53;1728991;81;21091;-57
2022/04/20 09:19:31;;;;;;;28.92;19.05;;;;;;;6.14;69.62;97749.64;1731913;81;21298;-58
2022/04/20 09:21:57;;;;;;;28.87;17.70;;;;;;;6.21;69.58;97753.47;1740732;81;20956;-58
2022/04/20 09:24:23;;;;;;;33.40;20.40;;;;;;;6.32;69.45;97746.27;1756440;80;21613;-58
2022/04/20 09:26:53;;;;;;;32.13;21.05;;;;;;;6.36;69.19;97744.16;1751697;80;20853;-57
2022/04/20 09:29:20;;;;;;;28.40;16.55;;;;;;;6.41;69.33;97738.83;1750932;80;21154;-58
2022/04/20 09:31:51;;;;;;;32.30;20.00;;;;;;;6.59;68.97;97740.81;1743961;80;21472;-57
2022/04/20 09:34:35;;;;;;;24.27;12.93;;;;;;;6.63;69.20;97733.83;1729755;81;20989;-57
2022/04/20 09:37:13;;;;;;;30.65;21.15;;;;;;;6.74;68.09;97722.84;1752918;80;20971;-57
2022/04/20 09:39:38;;;;;;;29.42;19.55;;;;;;;6.65;68.18;97719.56;1756073;80;20990;-57
2022/04/20 09:42:06;;;;;;;31.57;21.33;;;;;;;6.70;68.22;97721.75;1742595;81;21647;-58
2022/04/20 09:44:32;;;;;;;31.00;19.42;;;;;;;6.77;67.95;97724.22;1753119;80;21111;-58
2022/04/20 09:50:00;;;;;;;29.77;19.92;;;;;;;6.99;67.75;97724.84;1753905;80;21090;-58
2022/04/20 09:52:44;;;;;;;27.40;18.48;;;;;;;7.17;67.30;97716.00;1740663;81;21084;-58
2022/04/20 09:55:12;;;;;;;24.90;18.35;;;;;;;7.23;66.96;97719.00;1741375;79;22211;-57
2022/04/20 09:57:38;;;;;;;26.17;17.92;;;;;;;7.33;66.15;97714.98;1741952;81;21597;-58
2022/04/20 10:00:10;;;;;;;31.05;20.65;;;;;;;7.34;66.05;97718.75;1742325;80;20895;-58
2022/04/20 10:02:53;;;;;;;25.68;18.37;;;;;;;7.39;66.60;97715.27;1739782;81;21466;-57
2022/04/20 10:05:22;;;;;;;29.85;18.25;;;;;;;7.48;65.82;97723.10;1741067;81;21040;-58
2022/04/20 10:07:47;;;;;;;29.92;19.35;;;;;;;7.43;65.12;97716.88;1741509;81;21106;-57
2022/04/20 10:10:14;;;;;;;25.15;17.70;;;;;;;7.41;65.56;97725.23;1742648;79;21015;-57
2022/04/20 10:12:42;;;;;;;27.37;17.40;;;;;;;7.34;65.43;97715.24;1741359;81;21032;-57
2022/04/20 10:17:56;;;;;;;24.72;17.37;;;;;;;7.26;65.34;97718.45;1732074;81;21395;-58
2022/04/20 10:20:26;;;;;;;28.10;18.12;;;;;;;7.21;65.78;97721.16;1741436;81;21091;-57
2022/04/20 10:22:53;;;;;;;30.40;17.98;;;;;;;7.30;65.95;97715.52;1711956;81;22090;-58
2022/04/20 10:25:20;;;;;;;27.05;17.42;;;;;;;7.40;66.24;97712.03;1734808;81;21487;-58
2022/04/20 10:28:20;;;;;;;27.17;17.65;;;;;;;7.42;65.10;97701.78;1733910;81;21112;-58
2022/04/20 10:31:20;;;;;;;25.92;17.17;;;;;;;7.33;64.87;97706.34;1731811;81;21028;-57
2022/04/20 10:33:46;;;;;;;25.00;15.75;;;;;;;7.23;64.78;97713.06;1727182;81;21102;-56
2022/04/20 10:36:15;;;;;;;24.15;15.15;;;;;;;7.30;64.91;97712.28;1731820;81;21855;-57
2022/04/20 10:38:42;;;;;;;;;;;;;;;7.39;63.71;97707.72;1745423;81;21084;-57
2022/04/20 10:41:14;;;;;;;29.55;17.92;;;;;;;7.39;63.93;97716.62;1686024;82;20321;-57
2022/04/20 10:43:42;;;;;;;29.40;16.82;;;;;;;7.43;64.72;97711.48;1734087;81;21070;-57
2022/04/20 10:46:18;;;;;;;26.67;17.37;;;;;;;7.49;64.85;97707.73;1724601;81;21040;-57
2022/04/20 10:48:48;;;;;;;30.52;19.37;;;;;;;7.50;64.81;97704.77;1733435;81;21052;-57
2022/04/20 10:51:16;;;;;;;25.70;18.05;;;;;;;7.57;64.61;97707.21;1742261;80;20974;-58
2022/04/20 10:53:46;;;;;;;26.05;16.62;;;;;;;7.53;64.57;97710.19;1740819;79;21095;-58
2022/04/20 10:56:12;;;;;;;24.87;17.32;;;;;;;7.52;64.54;97708.03;1741951;81;21374;-57
2022/04/20 10:58:38;;;;;;;25.35;16.15;;;;;;;7.53;64.61;97710.99;1742190;79;20949;-57
2022/04/20 11:01:11;;;;;;;21.77;15.13;;;;;;;7.60;64.20;97710.17;1682868;82;21807;-58
2022/04/20 11:04:05;;;;;;;18.60;12.55;;;;;;;7.58;63.90;97710.17;1730537;81;21021;-57
2022/04/20 11:07:03;;;;;;;26.40;17.25;;;;;;;7.63;63.72;97706.95;1728088;82;20993;-57
2022/04/20 11:09:47;;;;;;;26.73;17.60;;;;;;;7.57;62.86;97708.55;1736929;79;21027;-57
2022/04/20 11:18:52;;;;;;;28.12;21.12;;;;;;;7.79;63.54;97706.44;1729682;81;21028;-58
2022/04/20 11:21:09;;;;;;;23.27;16.23;;;;;;;7.87;63.03;97700.50;1716590;81;20997;-58
2022/04/20 11:24:03;;;;;;;25.32;15.70;;;;;;;7.90;62.22;97702.65;1728596;81;21843;-57
2022/04/20 11:26:39;;;;;;;27.32;16.73;;;;;;;7.87;61.99;97697.81;1725477;80;21017;-58
2022/04/20 11:29:22;;;;;;;16.77;8.60;;;;;;;7.93;62.25;97694.55;1736206;81;21133;-58
2022/04/20 11:31:59;;;;;;;41.23;20.02;;;;;;;8.03;59.97;97691.03;1745717;81;21544;-57
2022/04/20 11:34:27;;;;;;;20.20;13.72;;;;;;;7.89;60.66;97689.44;1732201;81;21090;-58
2022/04/20 11:36:56;;;;;;;20.25;13.90;;;;;;;7.89;60.43;97692.94;1725610;82;21128;-59
2022/04/20 11:39:25;;;;;;;24.65;12.85;;;;;;;7.93;60.19;97680.52;1737863;81;21115;-59
2022/04/20 11:41:58;;;;;;;22.17;14.05;;;;;;;8.02;60.56;97679.97;1754299;80;21555;-59
2022/04/20 11:44:31;;;;;;;20.48;13.62;;;;;;;8.15;60.83;97683.48;1758263;80;21022;-59
2022/04/20 11:47:03;;;;;;;19.30;13.15;;;;;;;8.30;60.78;97678.61;1731004;81;21472;-59
2022/04/20 11:49:40;;;;;;;20.97;14.63;;;;;;;8.40;60.43;97690.77;1719050;81;21048;-59
2022/04/20 11:52:06;;;;;;;17.98;12.18;;;;;;;8.51;59.99;97672.09;1734495;81;21071;-60
2022/04/20 11:54:32;;;;;;;17.98;12.53;;;;;;;8.59;59.63;97675.58;1735248;81;22198;-59
2022/04/20 11:56:58;;;;;;;18.95;13.75;;;;;;;8.65;59.63;97675.04;1736599;82;21007;-59
2022/04/20 11:59:29;;;;;;;19.67;13.03;;;;;;;8.65;56.76;97670.98;1731802;81;20888;-58
2022/04/20 12:01:52;;;;;;;21.05;14.33;;;;;;;8.51;58.32;97662.64;1724712;81;21003;-59